Time;durP1;ratioP1;P1;durP2;ratioP2;P2;SDS_P1;SDS_P2;PMS_P1;PMS_P2;Temp;Humidity;BMP_temperature;BMP_pressure;BME280_temperature;BME280_humidity;BME280_pressure;Samples;Min_cycle;Max_cycle;Signal;HPM_P1;HPM_P2
2023/04/05 00:00:45;;;;;;;4.70;1.13;;;11.40;92.50;;;;;;7404624;19;19930;-73
2023/04/05 00:03:11;;;;;;;4.20;1.20;;;11.40;92.40;;;;;;7404284;19;19929;-73
2023/04/05 00:05:37;;;;;;;4.72;1.92;;;11.30;92.50;;;;;;7406860;19;20319;-71
2023/04/05 00:08:07;;;;;;;10.18;1.52;;;11.30;92.60;;;;;;7403945;19;19950;-72
2023/04/05 00:10:33;;;;;;;5.63;1.27;;;11.40;92.50;;;;;;7408194;19;19923;-73
2023/04/05 00:12:59;;;;;;;5.68;1.17;;;11.30;92.70;;;;;;7401203;19;19915;-73
2023/04/05 00:15:30;;;;;;;6.32;1.30;;;11.30;92.70;;;;;;7405006;19;20014;-72
2023/04/05 00:17:56;;;;;;;3.38;0.88;;;11.20;92.80;;;;;;7404980;19;19919;-72
2023/04/05 00:20:22;;;;;;;3.17;1.00;;;11.30;92.70;;;;;;7403966;19;19930;-73
2023/04/05 00:22:49;;;;;;;4.95;1.63;;;11.30;92.90;;;;;;7407484;19;20318;-72
2023/04/05 00:25:16;;;;;;;6.78;1.42;;;11.30;93.00;;;;;;7405667;19;19952;-72
2023/04/05 00:27:45;;;;;;;4.95;1.23;;;11.30;93.10;;;;;;7404691;19;19910;-72
2023/04/05 00:30:11;;;;;;;11.35;1.67;;;11.30;93.00;;;;;;7403483;19;19918;-73
2023/04/05 00:32:37;;;;;;;5.72;1.15;;;11.30;93.10;;;;;;7401767;19;20339;-72
2023/04/05 00:35:04;;;;;;;7.78;1.00;;;11.30;93.00;;;;;;7401878;19;19929;-72
2023/04/05 00:37:31;;;;;;;3.97;1.27;;;11.40;92.90;;;;;;7407210;19;19931;-73
2023/04/05 00:39:56;;;;;;;12.02;1.77;;;11.30;92.90;;;;;;7402300;19;19965;-72
2023/04/05 00:42:22;;;;;;;5.78;1.40;;;11.30;93.10;;;;;;7403728;19;19950;-72
2023/04/05 00:44:48;;;;;;;4.53;1.15;;;11.30;93.20;;;;;;7405063;19;20034;-71
2023/04/05 00:47:17;;;;;;;9.20;1.38;;;11.30;93.20;;;;;;7403234;19;19918;-73
2023/04/05 00:49:43;;;;;;;5.32;1.00;;;11.20;93.40;;;;;;7402748;19;19950;-72
2023/04/05 00:52:09;;;;;;;5.15;1.33;;;11.10;93.50;;;;;;7373555;19;19919;-73
2023/04/05 00:54:37;;;;;;;7.93;1.50;;;11.20;93.60;;;;;;7403846;19;19915;-72
2023/04/05 00:57:04;;;;;;;4.25;1.70;;;11.20;93.70;;;;;;7400065;19;20283;-71
2023/04/05 00:59:30;;;;;;;6.32;1.40;;;11.10;93.70;;;;;;7403613;19;19938;-74
2023/04/05 01:02:18;;;;;;;4.72;1.27;;;11.10;93.80;;;;;;7404753;19;20003;-73
2023/04/05 01:04:50;;;;;;;5.63;1.50;;;11.00;93.90;;;;;;7401497;19;19925;-73
2023/04/05 01:07:26;;;;;;;8.32;1.58;;;11.10;94.30;;;;;;7401787;19;20341;-73
2023/04/05 01:09:59;;;;;;;6.47;1.27;;;11.10;94.10;;;;;;7401242;19;19986;-73
2023/04/05 01:12:33;;;;;;;4.05;1.42;;;11.00;94.30;;;;;;7401328;19;19959;-72
2023/04/05 01:14:59;;;;;;;7.13;1.70;;;10.90;94.20;;;;;;7403522;19;20227;-72
2023/04/05 01:17:27;;;;;;;5.70;1.30;;;10.90;94.10;;;;;;7401792;19;19911;-73
2023/04/05 01:19:58;;;;;;;3.88;1.33;;;10.90;94.30;;;;;;7402762;19;19918;-72
2023/04/05 01:22:39;;;;;;;5.97;1.65;;;10.90;94.30;;;;;;7401184;19;20243;-72
2023/04/05 01:25:36;;;;;;;6.45;1.83;;;10.80;94.30;;;;;;7400319;19;19911;-74
2023/04/05 01:28:40;;;;;;;5.35;1.38;;;10.70;94.50;;;;;;7403004;19;20663;-73
2023/04/05 01:31:08;;;;;;;;;;;10.60;94.90;;;;;;7404490;19;19929;-72
2023/04/05 01:33:36;;;;;;;5.03;1.73;;;10.60;95.10;;;;;;7401234;19;20281;-72
2023/04/05 01:36:32;;;;;;;3.88;1.13;;;10.50;95.20;;;;;;7404315;19;19922;-71
2023/04/05 01:39:01;;;;;;;7.70;1.67;;;10.50;95.50;;;;;;7401554;19;19970;-72
2023/04/05 01:41:28;;;;;;;6.18;1.50;;;10.50;95.70;;;;;;7400718;19;19926;-71
2023/04/05 01:43:54;;;;;;;;;;;10.40;96.00;;;;;;7407564;19;20014;-73
2023/04/05 01:46:20;;;;;;;9.73;1.60;;;10.40;95.90;;;;;;7402743;19;20327;-73
2023/04/05 01:48:45;;;;;;;5.93;1.60;;;10.40;96.20;;;;;;7404105;19;19917;-73
2023/04/05 01:51:11;;;;;;;6.70;1.50;;;10.30;96.10;;;;;;7401437;19;19915;-72
2023/04/05 01:53:37;;;;;;;6.78;1.40;;;10.40;96.20;;;;;;7400444;19;19935;-72
2023/04/05 01:56:03;;;;;;;5.85;1.70;;;10.30;96.40;;;;;;7400685;19;19943;-72
2023/04/05 01:58:29;;;;;;;7.60;1.80;;;10.20;96.60;;;;;;7403301;19;19943;-72
2023/04/05 02:00:55;;;;;;;6.57;1.85;;;10.30;97.20;;;;;;7403047;19;20351;-72
2023/04/05 02:03:23;;;;;;;6.15;1.40;;;10.30;96.90;;;;;;7399513;19;20308;-72
2023/04/05 02:05:49;;;;;;;6.65;1.33;;;10.50;96.80;;;;;;7402850;19;19989;-72
2023/04/05 02:08:15;;;;;;;6.53;1.60;;;10.70;96.10;;;;;;7399946;19;19925;-72
2023/04/05 02:10:41;;;;;;;7.13;1.45;;;10.70;96.10;;;;;;7403524;19;19926;-72
2023/04/05 02:13:07;;;;;;;6.07;1.42;;;10.70;96.00;;;;;;7398837;19;19930;-74
2023/04/05 02:15:33;;;;;;;7.55;1.50;;;10.50;96.20;;;;;;7403591;19;19958;-72
2023/04/05 02:18:00;;;;;;;8.05;1.55;;;10.40;96.40;;;;;;7402957;19;19919;-73
2023/04/05 02:20:27;;;;;;;6.13;2.28;;;10.50;96.40;;;;;;7400136;19;19946;-73
2023/04/05 02:22:53;;;;;;;3.30;1.27;;;10.40;96.40;;;;;;7400831;19;19926;-72
2023/04/05 02:25:19;;;;;;;5.63;1.77;;;10.30;96.80;;;;;;7399819;19;19926;-73
2023/04/05 02:27:45;;;;;;;7.10;1.60;;;10.40;96.80;;;;;;7402312;19;19918;-72
2023/04/05 02:30:14;;;;;;;5.20;1.55;;;10.40;97.00;;;;;;7399048;19;19911;-71
2023/04/05 02:32:44;;;;;;;7.05;1.58;;;10.40;96.90;;;;;;7408424;19;19914;-72
2023/04/05 02:35:10;;;;;;;11.18;1.98;;;10.30;96.80;;;;;;7407927;19;19911;-73
2023/04/05 02:37:37;;;;;;;3.97;1.40;;;10.30;97.40;;;;;;7406713;19;19944;-72
2023/04/05 02:40:08;;;;;;;5.43;1.30;;;10.30;97.30;;;;;;7406311;19;19974;-72
2023/04/05 02:42:35;;;;;;;4.72;1.35;;;10.70;96.90;;;;;;7407993;19;20272;-71
2023/04/05 02:45:01;;;;;;;5.82;1.00;;;10.70;96.80;;;;;;7406267;19;19919;-73
2023/04/05 02:47:26;;;;;;;4.93;1.35;;;10.60;97.00;;;;;;7407308;19;20291;-72
2023/04/05 02:49:52;;;;;;;5.30;1.13;;;10.60;97.10;;;;;;7408098;19;19923;-73
2023/04/05 02:52:18;;;;;;;5.00;1.17;;;10.50;97.30;;;;;;7407289;19;20021;-72
2023/04/05 02:54:45;;;;;;;5.93;1.38;;;10.50;97.10;;;;;;7410165;19;19918;-72
2023/04/05 02:57:11;;;;;;;;;;;10.60;97.30;;;;;;7408194;19;20275;-73
2023/04/05 02:59:38;;;;;;;4.60;1.20;;;10.60;97.30;;;;;;7407999;19;19926;-72
2023/04/05 03:02:05;;;;;;;5.18;1.20;;;10.70;97.30;;;;;;7375762;19;19989;-72
2023/04/05 03:04:33;;;;;;;6.07;1.50;;;10.60;97.30;;;;;;7409626;19;19919;-72
2023/04/05 03:07:01;;;;;;;6.65;1.40;;;10.70;97.20;;;;;;7408309;19;20359;-72
2023/04/05 03:09:32;;;;;;;4.95;1.55;;;10.90;96.60;;;;;;7406766;19;19979;-72
2023/04/05 03:12:00;;;;;;;8.75;1.52;;;10.70;96.70;;;;;;7409223;19;20495;-72
2023/04/05 03:14:26;;;;;;;5.15;1.40;;;10.60;97.00;;;;;;7405110;19;20411;-72
2023/04/05 03:16:52;;;;;;;4.68;1.30;;;10.50;97.30;;;;;;7406136;19;19943;-72
2023/04/05 03:19:21;;;;;;;6.20;1.80;;;10.40;97.60;;;;;;7406682;19;19974;-71
2023/04/05 03:21:47;;;;;;;10.63;1.60;;;10.30;97.70;;;;;;7375413;19;19918;-72
2023/04/05 03:24:14;;;;;;;4.45;1.40;;;10.20;97.90;;;;;;7405225;19;19926;-71
2023/04/05 03:26:47;;;;;;;4.18;1.25;;;10.20;98.70;;;;;;7405956;19;19921;-71
2023/04/05 03:29:14;;;;;;;6.45;1.38;;;10.00;98.80;;;;;;7403164;19;20613;-73
2023/04/05 03:31:40;;;;;;;7.03;1.75;;;10.00;99.20;;;;;;7409618;19;19934;-72
2023/04/05 03:34:06;;;;;;;6.00;1.70;;;10.00;99.10;;;;;;7404520;19;19946;-72
2023/04/05 03:36:40;;;;;;;8.18;1.50;;;10.00;99.50;;;;;;7405783;19;19924;-72
2023/04/05 03:39:10;;;;;;;8.32;1.52;;;9.90;99.40;;;;;;7407629;19;19918;-73
2023/04/05 03:41:37;;;;;;;5.00;1.33;;;10.00;99.50;;;;;;7404959;19;19915;-72
2023/04/05 03:44:03;;;;;;;5.32;1.70;;;9.80;99.60;;;;;;7402686;19;19940;-73
2023/04/05 03:46:29;;;;;;;7.45;1.33;;;9.80;99.90;;;;;;7408031;19;20324;-71
2023/04/05 03:48:56;;;;;;;6.57;1.88;;;9.70;99.90;;;;;;7406782;19;19915;-73
2023/04/05 03:51:22;;;;;;;;;;;9.70;99.90;;;;;;7407167;19;19935;-72
2023/04/05 03:53:49;;;;;;;6.00;1.52;;;9.60;99.90;;;;;;7406467;19;20346;-71
2023/04/05 03:56:15;;;;;;;5.97;1.45;;;9.70;99.90;;;;;;7405947;19;19931;-71
2023/04/05 03:58:41;;;;;;;8.02;1.33;;;9.70;99.90;;;;;;7404672;19;19937;-73
2023/04/05 04:01:06;;;;;;;4.20;1.30;;;9.60;99.90;;;;;;7402755;19;19939;-72
2023/04/05 04:03:32;;;;;;;7.97;1.67;;;9.80;99.90;;;;;;7372997;19;19915;-71
2023/04/05 04:05:59;;;;;;;6.43;1.50;;;9.70;99.90;;;;;;7404978;19;19918;-72
2023/04/05 04:08:25;;;;;;;8.68;1.90;;;9.60;99.90;;;;;;7404904;19;20567;-72
2023/04/05 04:10:51;;;;;;;6.47;1.60;;;9.50;99.90;;;;;;7407676;19;19930;-73
2023/04/05 04:13:18;;;;;;;8.55;1.83;;;9.40;99.90;;;;;;7401067;19;19921;-72
2023/04/05 04:15:44;;;;;;;6.07;1.50;;;9.40;99.90;;;;;;7406715;19;20768;-72
2023/04/05 04:18:10;;;;;;;9.30;1.80;;;9.50;99.90;;;;;;7404652;19;19938;-73
2023/04/05 04:20:37;;;;;;;9.07;1.50;;;9.50;99.90;;;;;;7405180;19;19914;-72
2023/04/05 04:23:03;;;;;;;5.97;1.60;;;9.60;99.90;;;;;;7403484;19;19938;-72
2023/04/05 04:25:29;;;;;;;5.35;1.90;;;9.60;99.90;;;;;;7406139;19;20039;-73
2023/04/05 04:27:56;;;;;;;5.30;1.85;;;9.60;99.90;;;;;;7403730;19;19927;-72
2023/04/05 04:30:22;;;;;;;9.27;1.67;;;9.60;99.90;;;;;;7407594;19;21429;-72
2023/04/05 04:32:54;;;;;;;9.15;2.30;;;9.60;99.90;;;;;;7403342;19;19926;-72
2023/04/05 04:35:25;;;;;;;7.43;1.67;;;9.50;99.90;;;;;;7403670;19;19942;-72
2023/04/05 04:38:06;;;;;;;5.85;2.08;;;9.50;99.90;;;;;;7405084;19;20263;-72
2023/04/05 04:40:45;;;;;;;5.97;1.83;;;9.60;99.90;;;;;;7403379;19;20949;-72
2023/04/05 04:43:13;;;;;;;6.20;1.40;;;9.90;99.90;;;;;;7403408;19;19922;-72
2023/04/05 04:45:40;;;;;;;6.07;1.70;;;10.10;97.60;;;;;;7405313;19;19915;-72
2023/04/05 04:48:07;;;;;;;6.00;1.70;;;10.10;98.70;;;;;;7404434;19;19943;-73
2023/04/05 04:50:33;;;;;;;8.77;1.83;;;10.00;99.00;;;;;;7403168;19;20014;-72
2023/04/05 04:53:00;;;;;;;6.22;1.77;;;10.00;99.70;;;;;;7404288;19;19928;-71
2023/04/05 04:55:27;;;;;;;9.13;2.13;;;9.90;99.90;;;;;;7403186;19;19915;-71
2023/04/05 04:57:54;;;;;;;;;;;10.00;99.90;;;;;;7407426;19;19946;-72
2023/04/05 05:00:21;;;;;;;8.18;1.80;;;9.90;99.50;;;;;;7402180;19;19919;-72
2023/04/05 05:02:47;;;;;;;7.38;2.88;;;10.00;98.80;;;;;;7405847;19;20263;-72
2023/04/05 05:05:13;;;;;;;6.40;1.80;;;10.00;98.40;;;;;;7401425;19;19938;-71
2023/04/05 05:07:41;;;;;;;4.55;1.45;;;10.20;97.20;;;;;;7404655;19;19933;-73
2023/04/05 05:10:08;;;;;;;5.60;1.35;;;10.40;93.50;;;;;;7401760;19;19919;-72
2023/04/05 05:12:34;;;;;;;5.75;1.13;;;10.50;92.60;;;;;;7403686;19;19914;-73
2023/04/05 05:15:00;;;;;;;4.32;1.40;;;10.50;91.70;;;;;;7402189;19;19914;-72
2023/04/05 05:17:26;;;;;;;4.70;1.20;;;10.50;91.80;;;;;;7401507;19;19970;-73
2023/04/05 05:19:51;;;;;;;5.82;1.50;;;10.70;91.30;;;;;;7402356;19;19930;-72
2023/04/05 05:22:17;;;;;;;6.07;1.50;;;10.70;90.70;;;;;;7400640;19;20473;-72
2023/04/05 05:24:44;;;;;;;4.43;1.20;;;10.70;90.10;;;;;;7373516;19;19922;-72
2023/04/05 05:27:09;;;;;;;8.07;1.50;;;10.80;90.20;;;;;;7400411;19;20082;-72
2023/04/05 05:29:35;;;;;;;5.68;1.35;;;10.80;90.20;;;;;;7404820;19;19923;-73
2023/04/05 05:32:01;;;;;;;5.10;2.17;;;10.80;90.20;;;;;;7402397;19;20258;-73
2023/04/05 05:34:27;;;;;;;3.60;1.40;;;10.90;90.10;;;;;;7401623;19;19923;-72
2023/04/05 05:36:54;;;;;;;5.72;1.73;;;10.90;90.20;;;;;;7405439;19;19919;-72
2023/04/05 05:39:20;;;;;;;9.57;1.77;;;10.90;90.30;;;;;;7401632;19;19918;-72
2023/04/05 05:41:46;;;;;;;6.88;1.70;;;10.80;90.60;;;;;;7402812;19;19946;-72
2023/04/05 05:44:12;;;;;;;5.28;2.00;;;10.70;90.80;;;;;;7402589;19;19919;-72
2023/04/05 05:46:39;;;;;;;5.57;1.98;;;10.80;91.30;;;;;;7405131;19;19926;-73
2023/04/05 05:49:05;;;;;;;8.45;2.42;;;10.90;91.40;;;;;;7402710;19;19925;-72
2023/04/05 05:51:32;;;;;;;12.75;3.00;;;10.90;91.40;;;;;;7400367;19;19926;-73
2023/04/05 05:53:58;;;;;;;5.72;2.72;;;10.90;91.60;;;;;;7402340;19;19918;-72
2023/04/05 05:56:23;;;;;;;5.07;2.03;;;10.90;91.50;;;;;;7403875;19;19910;-72
2023/04/05 05:58:49;;;;;;;7.45;2.15;;;10.90;91.50;;;;;;7403283;19;19923;-72
2023/04/05 06:01:16;;;;;;;10.85;3.40;;;10.90;91.70;;;;;;7400800;19;20214;-72
2023/04/05 06:03:42;;;;;;;10.25;2.88;;;10.90;91.70;;;;;;7370922;19;19914;-72
2023/04/05 06:06:10;;;;;;;9.63;3.22;;;11.00;91.60;;;;;;7398167;19;19975;-73
2023/04/05 06:08:37;;;;;;;7.03;2.70;;;11.00;91.80;;;;;;7410693;19;20013;-72
2023/04/05 06:11:02;;;;;;;6.32;3.08;;;11.00;91.90;;;;;;7399530;19;19919;-73
2023/04/05 06:13:29;;;;;;;7.97;2.78;;;11.00;92.00;;;;;;7400574;19;20418;-72
2023/04/05 06:15:55;;;;;;;5.55;2.55;;;11.00;92.00;;;;;;7375754;19;19942;-73
2023/04/05 06:18:21;;;;;;;8.27;2.75;;;11.00;91.90;;;;;;7403029;19;19918;-72
2023/04/05 06:20:47;;;;;;;7.10;3.08;;;11.00;91.90;;;;;;7406887;19;19915;-72
2023/04/05 06:23:12;;;;;;;6.50;2.58;;;11.10;92.10;;;;;;7407032;19;20372;-72
2023/04/05 06:25:39;;;;;;;7.60;2.88;;;11.10;92.30;;;;;;7407344;19;19915;-71
2023/04/05 06:28:06;;;;;;;7.70;2.85;;;11.10;92.30;;;;;;7409148;19;20327;-72
2023/04/05 06:30:33;;;;;;;7.22;2.30;;;11.20;92.50;;;;;;7408894;19;19915;-73
2023/04/05 06:32:59;;;;;;;9.18;2.92;;;11.20;92.40;;;;;;7407352;19;19918;-72
2023/04/05 06:35:25;;;;;;;7.00;2.60;;;11.20;92.40;;;;;;7407566;19;19911;-72
2023/04/05 06:37:53;;;;;;;9.25;3.05;;;11.20;92.40;;;;;;7409345;19;19935;-72
2023/04/05 06:40:19;;;;;;;6.35;2.97;;;11.20;92.20;;;;;;7373933;19;19919;-72
2023/04/05 06:42:45;;;;;;;6.57;2.53;;;11.20;92.20;;;;;;7410202;19;19911;-72
2023/04/05 06:45:11;;;;;;;9.60;3.05;;;11.30;92.00;;;;;;7408064;19;19930;-73
2023/04/05 06:47:38;;;;;;;9.88;2.88;;;11.30;92.10;;;;;;7410448;19;19911;-72
2023/04/05 06:50:08;;;;;;;9.45;2.85;;;11.30;91.80;;;;;;7405879;19;19922;-73
2023/04/05 06:52:34;;;;;;;6.25;2.47;;;11.40;91.60;;;;;;7406064;19;19949;-72
2023/04/05 06:55:00;;;;;;;10.45;2.70;;;11.40;91.20;;;;;;7408054;19;19914;-73
2023/04/05 06:57:26;;;;;;;5.63;2.25;;;11.40;90.80;;;;;;7407957;19;19919;-72
2023/04/05 06:59:53;;;;;;;6.05;2.40;;;11.50;90.20;;;;;;7405344;19;19922;-73
2023/04/05 07:02:19;;;;;;;5.25;2.05;;;11.50;89.80;;;;;;7404854;19;19918;-72
2023/04/05 07:04:46;;;;;;;7.20;2.38;;;11.50;88.40;;;;;;7407832;19;19910;-71
2023/04/05 07:07:12;;;;;;;7.55;2.90;;;11.60;88.60;;;;;;7399559;19;19922;-72
2023/04/05 07:09:38;;;;;;;8.00;2.30;;;11.60;88.70;;;;;;7404055;19;19929;-72
2023/04/05 07:12:06;;;;;;;7.65;2.63;;;11.70;88.60;;;;;;7400026;19;19914;-71
2023/04/05 07:14:33;;;;;;;7.03;2.55;;;11.70;88.20;;;;;;7399673;19;19918;-73
2023/04/05 07:17:00;;;;;;;5.90;2.67;;;11.70;88.40;;;;;;7397659;19;19910;-72
2023/04/05 07:19:26;;;;;;;4.82;2.20;;;11.80;86.70;;;;;;7401077;19;19919;-71
2023/04/05 07:21:52;;;;;;;6.40;2.55;;;11.90;85.50;;;;;;7399458;19;19933;-72
2023/04/05 07:24:18;;;;;;;8.35;2.45;;;12.00;84.60;;;;;;7402864;19;19922;-73
2023/04/05 07:26:44;;;;;;;6.93;2.08;;;12.10;84.60;;;;;;7402488;19;19925;-72
2023/04/05 07:29:10;;;;;;;4.85;2.92;;;12.10;84.00;;;;;;7372714;19;20299;-73
2023/04/05 07:31:38;;;;;;;7.15;2.03;;;12.20;83.80;;;;;;7390147;19;19914;-72
2023/04/05 07:34:03;;;;;;;6.43;2.08;;;12.40;79.30;;;;;;7393038;19;19911;-71
2023/04/05 07:36:30;;;;;;;4.75;2.10;;;12.40;80.00;;;;;;7364621;19;19978;-73
2023/04/05 07:38:59;;;;;;;8.27;2.03;;;12.50;77.50;;;;;;7394284;19;19930;-71
2023/04/05 07:41:27;;;;;;;4.75;1.90;;;12.60;77.70;;;;;;7396549;19;19946;-72
2023/04/05 07:43:52;;;;;;;5.57;2.05;;;12.60;76.60;;;;;;7406883;19;20365;-72
2023/04/05 07:46:19;;;;;;;5.78;2.10;;;12.80;74.80;;;;;;7405140;19;19974;-72
2023/04/05 07:48:48;;;;;;;6.53;2.25;;;12.80;73.70;;;;;;7401190;19;19917;-72
2023/04/05 07:51:14;;;;;;;7.82;2.20;;;12.80;75.60;;;;;;7403603;19;20395;-72
2023/04/05 07:53:40;;;;;;;5.22;1.90;;;12.70;76.90;;;;;;7404600;19;19914;-72
2023/04/05 07:56:06;;;;;;;8.13;2.20;;;12.80;77.00;;;;;;7406639;19;19989;-73
2023/04/05 07:58:34;;;;;;;6.95;2.97;;;12.80;77.50;;;;;;7398065;19;19914;-74
2023/04/05 08:01:01;;;;;;;6.03;2.30;;;12.80;76.30;;;;;;7393616;19;19918;-73
2023/04/05 08:03:28;;;;;;;5.90;2.03;;;12.90;76.90;;;;;;7402006;19;19998;-73
2023/04/05 08:05:53;;;;;;;;;;;13.00;74.60;;;;;;7405412;19;20535;-73
2023/04/05 08:08:19;;;;;;;4.57;1.83;;;13.20;74.90;;;;;;7399869;19;19919;-75
2023/04/05 08:10:45;;;;;;;5.90;2.42;;;13.30;74.60;;;;;;7392993;19;20506;-73
2023/04/05 08:13:11;;;;;;;5.15;1.60;;;13.40;74.70;;;;;;7396365;19;19925;-75
2023/04/05 08:15:37;;;;;;;7.60;1.92;;;13.40;73.30;;;;;;7394888;19;19979;-72
2023/04/05 08:18:02;;;;;;;5.07;1.90;;;13.50;73.70;;;;;;7404930;19;19918;-74
2023/04/05 08:20:28;;;;;;;5.85;2.20;;;13.60;73.70;;;;;;7407175;19;19918;-74
2023/04/05 08:22:54;;;;;;;7.38;2.53;;;13.60;72.60;;;;;;7403172;19;19922;-74
2023/04/05 08:25:20;;;;;;;4.50;1.80;;;13.70;73.00;;;;;;7387931;19;19915;-74
2023/04/05 08:27:45;;;;;;;5.55;1.98;;;13.90;72.40;;;;;;7406106;19;19914;-72
2023/04/05 08:30:12;;;;;;;5.45;2.05;;;13.90;70.30;;;;;;7393044;19;19935;-73
2023/04/05 08:32:38;;;;;;;5.53;1.85;;;14.00;71.50;;;;;;7403425;19;20354;-74
2023/04/05 08:35:04;;;;;;;5.68;2.10;;;14.10;71.30;;;;;;7401794;19;19918;-74
2023/04/05 08:37:33;;;;;;;5.10;2.05;;;15.20;69.80;;;;;;7402858;19;19925;-74
2023/04/05 08:39:59;;;;;;;5.68;2.33;;;17.50;66.20;;;;;;7400156;19;19990;-75
2023/04/05 08:42:33;;;;;;;5.95;1.67;;;18.10;62.20;;;;;;7394230;19;19918;-74
2023/04/05 08:45:02;;;;;;;6.68;2.03;;;19.20;60.00;;;;;;7396314;19;19918;-74
2023/04/05 08:47:32;;;;;;;4.65;2.00;;;19.50;56.80;;;;;;7395563;19;19926;-73
2023/04/05 08:49:58;;;;;;;9.18;2.10;;;20.70;58.00;;;;;;7402119;19;19938;-75
2023/04/05 08:52:25;;;;;;;7.40;1.98;;;21.70;55.70;;;;;;7365420;19;20276;-73
2023/04/05 08:54:54;;;;;;;6.28;2.58;;;21.20;53.70;;;;;;7401881;19;19954;-73
2023/04/05 08:57:26;;;;;;;9.57;2.75;;;18.90;54.70;;;;;;7396023;19;20012;-74
2023/04/05 08:59:55;;;;;;;6.72;2.70;;;18.60;57.00;;;;;;7395815;19;19919;-73
2023/04/05 09:02:23;;;;;;;5.13;2.28;;;18.60;57.30;;;;;;7353790;19;19922;-73
2023/04/05 09:04:50;;;;;;;5.07;2.80;;;18.30;57.00;;;;;;7371745;19;20256;-74
2023/04/05 09:07:18;;;;;;;6.20;2.38;;;18.40;56.20;;;;;;7395877;19;20377;-72
2023/04/05 09:09:51;;;;;;;4.57;2.17;;;19.40;55.20;;;;;;7403166;19;19915;-72
2023/04/05 09:12:21;;;;;;;5.18;2.15;;;19.70;53.40;;;;;;7398833;19;20350;-73
2023/04/05 09:14:48;;;;;;;5.45;2.08;;;20.60;52.70;;;;;;7396760;19;20550;-73
2023/04/05 09:17:17;;;;;;;5.90;1.92;;;20.50;50.70;;;;;;7384833;19;19915;-73
2023/04/05 09:19:43;;;;;;;3.00;1.40;;;20.20;51.60;;;;;;7385229;19;19914;-73
2023/04/05 09:22:10;;;;;;;7.05;2.35;;;20.20;50.30;;;;;;7396707;19;19918;-71
2023/04/05 09:24:41;;;;;;;4.53;1.92;;;21.00;49.90;;;;;;7390242;19;20362;-72
2023/04/05 09:27:09;;;;;;;5.25;1.60;;;20.90;50.00;;;;;;7394717;19;19914;-72
2023/04/05 09:29:37;;;;;;;4.15;1.63;;;21.90;46.80;;;;;;7395646;19;19978;-72
2023/04/05 09:32:03;;;;;;;4.43;1.48;;;21.50;45.50;;;;;;7395247;19;19925;-72
2023/04/05 09:34:31;;;;;;;5.65;2.10;;;22.50;45.60;;;;;;7400399;19;19919;-74
2023/04/05 09:36:58;;;;;;;7.22;3.53;;;22.80;44.40;;;;;;7384513;19;20382;-77
2023/04/05 09:39:31;;;;;;;;;;;22.70;49.00;;;;;;7382914;19;20335;-74
2023/04/05 09:42:11;;;;;;;11.90;6.25;;;22.00;55.00;;;;;;7396528;19;19985;-73
2023/04/05 09:45:05;;;;;;;14.45;6.32;;;21.00;56.50;;;;;;7402901;19;19911;-73
2023/04/05 09:47:35;;;;;;;13.57;6.03;;;20.10;58.30;;;;;;7388257;19;19911;-72
2023/04/05 09:50:05;;;;;;;14.82;6.13;;;20.30;59.50;;;;;;7398356;19;19994;-74
2023/04/05 09:52:32;;;;;;;11.75;6.20;;;21.10;58.80;;;;;;7395440;19;19914;-73
2023/04/05 09:55:00;;;;;;;15.52;6.57;;;21.80;57.60;;;;;;7405973;19;19927;-73
2023/04/05 09:57:28;;;;;;;12.80;6.40;;;22.30;57.60;;;;;;7402176;19;19917;-72
2023/04/05 09:59:54;;;;;;;12.73;6.03;;;22.60;57.30;;;;;;7402877;19;19921;-73
2023/04/05 10:02:24;;;;;;;14.82;7.07;;;21.40;58.60;;;;;;7391811;19;19915;-71
2023/04/05 10:04:50;;;;;;;12.50;6.45;;;19.60;59.60;;;;;;7392929;19;19930;-72
2023/04/05 10:07:18;;;;;;;13.20;6.97;;;18.60;62.80;;;;;;7396131;19;20352;-73
2023/04/05 10:09:45;;;;;;;11.15;6.45;;;19.10;63.00;;;;;;7397499;19;20323;-72
2023/04/05 10:12:28;;;;;;;14.15;7.00;;;19.70;62.20;;;;;;7403455;19;19939;-75
2023/04/05 10:14:57;;;;;;;11.77;6.50;;;19.50;61.60;;;;;;7408780;19;19974;-73
2023/04/05 10:17:30;;;;;;;13.00;5.63;;;19.50;62.30;;;;;;7399347;19;20756;-72
2023/04/05 10:20:14;;;;;;;12.10;5.68;;;19.00;62.10;;;;;;7403290;19;19910;-72
2023/04/05 10:23:11;;;;;;;12.85;5.20;;;18.60;63.20;;;;;;7379630;19;19915;-72
2023/04/05 10:26:03;;;;;;;13.32;4.93;;;17.90;64.30;;;;;;7410019;19;20344;-72
2023/04/05 10:28:33;;;;;;;11.50;4.63;;;18.10;64.30;;;;;;7405750;19;19906;-71
2023/04/05 10:31:33;;;;;;;8.45;4.63;;;18.40;64.40;;;;;;7409699;19;20566;-72
2023/04/05 10:34:05;;;;;;;16.42;4.50;;;18.10;64.10;;;;;;7393587;19;19915;-72
2023/04/05 10:36:38;;;;;;;12.82;5.30;;;17.20;66.80;;;;;;7401730;19;20272;-72
2023/04/05 10:39:24;;;;;;;8.85;3.58;;;18.10;66.10;;;;;;7399601;19;19925;-72
2023/04/05 10:41:59;;;;;;;6.88;3.47;;;18.20;63.90;;;;;;7370283;19;19918;-73
2023/04/05 10:44:25;;;;;;;8.05;3.03;;;17.70;64.20;;;;;;7393847;19;19961;-72
2023/04/05 10:46:53;;;;;;;8.20;2.92;;;17.60;63.90;;;;;;7399605;19;19918;-71
2023/04/05 10:49:28;;;;;;;9.02;3.63;;;17.80;64.40;;;;;;7396732;19;19927;-72
2023/04/05 10:51:54;;;;;;;11.57;4.57;;;18.20;63.90;;;;;;7395679;19;20595;-71
2023/04/05 10:54:22;;;;;;;9.20;3.00;;;18.80;62.80;;;;;;7382876;19;19915;-72
2023/04/05 10:56:49;;;;;;;10.60;3.53;;;18.70;62.80;;;;;;7399247;19;19921;-71
2023/04/05 10:59:16;;;;;;;8.70;2.97;;;19.20;62.00;;;;;;7396945;19;19915;-71
2023/04/05 11:01:42;;;;;;;8.43;3.35;;;18.30;63.50;;;;;;7373038;19;19990;-73
2023/04/05 11:04:15;;;;;;;11.38;2.85;;;18.20;62.40;;;;;;7403073;19;19925;-72
2023/04/05 11:06:41;;;;;;;6.85;2.80;;;18.90;61.60;;;;;;7394047;19;19921;-72
2023/04/05 11:09:14;;;;;;;9.68;2.42;;;18.70;61.90;;;;;;7395243;19;19914;-73
2023/04/05 11:11:45;;;;;;;9.40;2.85;;;17.90;63.60;;;;;;7392259;19;19918;-72
2023/04/05 11:14:35;;;;;;;6.88;2.58;;;18.80;62.40;;;;;;7327970;19;19930;-72
2023/04/05 11:17:02;;;;;;;7.75;2.88;;;19.30;61.30;;;;;;7394967;19;19915;-73
2023/04/05 11:19:45;;;;;;;7.93;2.53;;;19.70;60.10;;;;;;7398981;19;19918;-72
2023/04/05 11:22:13;;;;;;;11.85;3.45;;;18.70;62.30;;;;;;7391069;19;19925;-73
2023/04/05 11:25:01;;;;;;;10.68;3.20;;;19.20;61.50;;;;;;7394707;19;19914;-73
2023/04/05 11:27:33;;;;;;;9.80;3.35;;;19.80;62.50;;;;;;7398714;19;19944;-72
2023/04/05 11:30:00;;;;;;;9.93;2.95;;;20.30;60.10;;;;;;7397284;19;19946;-73
2023/04/05 11:32:41;;;;;;;7.60;2.85;;;19.00;60.70;;;;;;7388287;19;19918;-73
2023/04/05 11:35:16;;;;;;;10.43;3.50;;;18.20;63.20;;;;;;7407089;19;19938;-74
2023/04/05 11:38:00;;;;;;;7.57;3.25;;;18.60;64.60;;;;;;7404761;19;19929;-73
2023/04/05 11:40:30;;;;;;;8.23;3.28;;;18.80;65.30;;;;;;7402942;19;19911;-73
2023/04/05 11:43:06;;;;;;;7.35;3.08;;;18.90;65.30;;;;;;7397103;19;20741;-72
2023/04/05 11:45:34;;;;;;;9.73;3.20;;;19.10;66.30;;;;;;7397233;19;19910;-72
2023/04/05 11:48:12;;;;;;;9.82;2.97;;;19.40;65.10;;;;;;7392658;19;19918;-73
2023/04/05 11:50:44;;;;;;;10.60;3.50;;;18.70;66.10;;;;;;7399534;19;19915;-71
2023/04/05 11:53:20;;;;;;;10.18;2.88;;;19.00;66.90;;;;;;7389698;19;19918;-72
2023/04/05 11:55:49;;;;;;;8.98;3.28;;;18.90;67.50;;;;;;7407213;19;19919;-72
2023/04/05 11:58:24;;;;;;;7.97;3.20;;;19.40;67.10;;;;;;7399295;19;19915;-72
2023/04/05 12:01:06;;;;;;;8.43;3.20;;;19.40;66.30;;;;;;7400967;19;20335;-72
2023/04/05 12:03:32;;;;;;;10.35;3.15;;;19.80;65.60;;;;;;7395178;19;19911;-73
2023/04/05 12:06:00;;;;;;;8.18;3.58;;;20.10;66.20;;;;;;7396219;19;19910;-73
2023/04/05 12:08:49;;;;;;;7.20;3.78;;;20.10;66.10;;;;;;7396972;19;20288;-72
2023/04/05 12:11:16;;;;;;;9.45;3.00;;;19.80;66.00;;;;;;7402411;19;19917;-72
2023/04/05 12:13:44;;;;;;;7.38;2.55;;;19.50;66.90;;;;;;7403675;19;19948;-71
2023/04/05 12:16:10;;;;;;;8.50;2.95;;;19.60;67.40;;;;;;7401991;19;19919;-73
2023/04/05 12:18:37;;;;;;;6.30;2.50;;;20.30;65.50;;;;;;7404585;19;19938;-72
2023/04/05 12:21:08;;;;;;;6.13;2.78;;;20.50;65.30;;;;;;7400074;19;20335;-72
2023/04/05 12:23:34;;;;;;;7.25;2.67;;;20.00;65.70;;;;;;7397340;19;19906;-72
2023/04/05 12:26:00;;;;;;;6.53;2.80;;;20.50;66.30;;;;;;7403437;19;19923;-72
2023/04/05 12:28:57;;;;;;;7.72;2.85;;;19.60;64.90;;;;;;7393255;19;20327;-72
2023/04/05 12:31:45;;;;;;;6.78;2.53;;;19.80;65.80;;;;;;7400000;19;19955;-72
2023/04/05 12:34:12;;;;;;;7.32;2.90;;;20.80;64.10;;;;;;7398357;19;19936;-71
2023/04/05 12:36:43;;;;;;;6.93;2.63;;;20.20;63.90;;;;;;7397979;19;20675;-73
2023/04/05 12:39:10;;;;;;;8.30;2.25;;;21.30;63.80;;;;;;7397298;19;19918;-72
2023/04/05 12:41:36;;;;;;;6.95;2.20;;;20.70;61.90;;;;;;7397649;19;19961;-72
2023/04/05 12:44:15;;;;;;;9.65;2.72;;;21.00;63.40;;;;;;7393852;19;19934;-72
2023/04/05 12:46:46;;;;;;;5.97;2.75;;;19.80;64.90;;;;;;7388748;19;19921;-71
2023/04/05 12:49:17;;;;;;;5.18;1.88;;;20.90;62.40;;;;;;7384474;19;19986;-72
2023/04/05 12:51:45;;;;;;;7.38;2.58;;;20.50;62.00;;;;;;7386388;19;19930;-72
2023/04/05 12:54:14;;;;;;;7.32;1.90;;;20.70;61.40;;;;;;7390306;19;19966;-72
2023/04/05 12:56:41;;;;;;;8.63;2.60;;;21.00;60.40;;;;;;7369385;19;19919;-71